Bowling Green Warren County Regional Airport
KBWG : rendu visible

Aérodrome :











RETROUVEZ-NOUS SUR...

 
LOGIN :

S'inscrire | Disclaimer

   EN    FR    IT 

 









Légende :    VFR   VFR Marginal   IFR   IFR Intensif   IFR Très Intensif
Visi : 
Plafond : 
>= 8 km
>= 3000ft
5 à 8 km
1000 à 3000 ft
1500m à 5 km
500 à 1000 ft
800 à 1500m
200 à 500 ft
< 800m
< 200 ft
Symboles :   Orages  Brouillard  Fortes neiges  Fortes précipitations  Vent > 20 kt






- Altitude de l'aérodrome : 547 ft


KBWG - Bowling Green Warren County Regional

DERNIER METAR :
  • 212153Z AUTO 17010KT 10SM -RA OVC110 18/16 A2977 RMK AO2 SLP079 P0003 T01830156

METARs EXPIRÉS :
  • 212053Z AUTO 17010KT 10SM -RA OVC100 19/16 A2977 RMK AO2 SLP077 P0002 60003 T01940161 58011
  • 211953Z AUTO 19010KT 10SM -RA OVC085 21/17 A2978 RMK AO2 RAB1855 SLP083 P0000 T02060172

TAF KBWG
Valide du 21 à 20h jusqu'au 22 à 18h UTC


211942Z 2120/2218 20015G25KT P6SM VCSH OVC050
FM220000 22010G18KT P6SM VCSH OVC040
FM220400 24008KT P6SM SCT250



MET'MAP, la Météo Aéronautique d'un coup d'oeil ! - Copyright ORBIFLY Décembre 2007 - Disclaimer

ORBIFLY MET'MAP TEAM :

Programmation & Développement : Alexandra Zaïnal
Conception & Développement : Baudouin d'Aumeries
Co-Programmation & Développement : Marc-Olivier Méhu
Soutien technique & logistique : Manuel Goepfert

Contact : metmap@orbifly.com




SOURCES & CREDITS :

   NOAA       Earth
Advisory